sensor_id;sensor_type;location;lat;lon;timestamp;P1;durP1;ratioP1;P2;durP2;ratioP2
15049;SDS011;7622;42.724;23.250;2022-10-22T00:02:10;28.17;;;18.10;;
15049;SDS011;7622;42.724;23.250;2022-10-22T00:04:40;29.17;;;17.60;;
15049;SDS011;7622;42.724;23.250;2022-10-22T00:07:09;27.03;;;17.10;;
15049;SDS011;7622;42.724;23.250;2022-10-22T00:09:35;24.80;;;16.93;;
15049;SDS011;7622;42.724;23.250;2022-10-22T00:12:02;25.13;;;17.87;;
15049;SDS011;7622;42.724;23.250;2022-10-22T00:14:30;27.53;;;17.30;;
15049;SDS011;7622;42.724;23.250;2022-10-22T00:16:56;25.13;;;17.63;;
15049;SDS011;7622;42.724;23.250;2022-10-22T00:19:25;24.60;;;16.10;;
15049;SDS011;7622;42.724;23.250;2022-10-22T00:21:51;24.57;;;16.97;;
15049;SDS011;7622;42.724;23.250;2022-10-22T00:24:20;25.43;;;17.17;;
15049;SDS011;7622;42.724;23.250;2022-10-22T00:26:46;23.63;;;16.80;;
15049;SDS011;7622;42.724;23.250;2022-10-22T00:29:13;25.73;;;16.57;;
15049;SDS011;7622;42.724;23.250;2022-10-22T00:31:42;26.53;;;16.67;;
15049;SDS011;7622;42.724;23.250;2022-10-22T00:34:13;24.80;;;16.20;;
15049;SDS011;7622;42.724;23.250;2022-10-22T00:36:41;28.23;;;16.27;;
15049;SDS011;7622;42.724;23.250;2022-10-22T00:39:07;25.00;;;17.37;;
15049;SDS011;7622;42.724;23.250;2022-10-22T00:41:36;25.60;;;16.77;;
15049;SDS011;7622;42.724;23.250;2022-10-22T00:44:03;21.57;;;15.37;;
15049;SDS011;7622;42.724;23.250;2022-10-22T00:46:31;24.60;;;16.17;;
15049;SDS011;7622;42.724;23.250;2022-10-22T00:48:58;25.47;;;16.00;;
15049;SDS011;7622;42.724;23.250;2022-10-22T00:51:28;27.60;;;17.40;;
15049;SDS011;7622;42.724;23.250;2022-10-22T00:53:59;22.63;;;16.10;;
15049;SDS011;7622;42.724;23.250;2022-10-22T00:56:28;27.73;;;16.37;;
15049;SDS011;7622;42.724;23.250;2022-10-22T00:58:57;27.60;;;17.00;;
15049;SDS011;7622;42.724;23.250;2022-10-22T01:01:26;23.67;;;16.27;;
15049;SDS011;7622;42.724;23.250;2022-10-22T01:03:55;26.07;;;17.10;;
15049;SDS011;7622;42.724;23.250;2022-10-22T01:06:23;27.33;;;17.10;;
15049;SDS011;7622;42.724;23.250;2022-10-22T01:08:54;25.13;;;16.17;;
15049;SDS011;7622;42.724;23.250;2022-10-22T01:11:33;24.30;;;16.30;;
15049;SDS011;7622;42.724;23.250;2022-10-22T01:14:08;22.77;;;16.13;;
15049;SDS011;7622;42.724;23.250;2022-10-22T01:16:44;23.90;;;17.37;;
15049;SDS011;7622;42.724;23.250;2022-10-22T01:22:17;24.37;;;17.00;;
15049;SDS011;7622;42.724;23.250;2022-10-22T01:24:52;23.03;;;16.10;;
15049;SDS011;7622;42.724;23.250;2022-10-22T01:27:25;24.40;;;17.10;;
15049;SDS011;7622;42.724;23.250;2022-10-22T01:30:00;28.67;;;17.27;;
15049;SDS011;7622;42.724;23.250;2022-10-22T01:32:30;29.40;;;16.50;;
15049;SDS011;7622;42.724;23.250;2022-10-22T01:35:03;26.47;;;16.57;;
15049;SDS011;7622;42.724;23.250;2022-10-22T01:37:33;27.27;;;17.47;;
15049;SDS011;7622;42.724;23.250;2022-10-22T01:40:06;29.07;;;17.17;;
15049;SDS011;7622;42.724;23.250;2022-10-22T01:42:34;24.17;;;16.43;;
15049;SDS011;7622;42.724;23.250;2022-10-22T01:45:04;26.60;;;17.87;;
15049;SDS011;7622;42.724;23.250;2022-10-22T01:47:38;26.93;;;16.43;;
15049;SDS011;7622;42.724;23.250;2022-10-22T01:50:19;25.50;;;17.03;;
15049;SDS011;7622;42.724;23.250;2022-10-22T01:53:01;23.60;;;16.40;;
15049;SDS011;7622;42.724;23.250;2022-10-22T01:55:41;24.57;;;16.43;;
15049;SDS011;7622;42.724;23.250;2022-10-22T01:58:22;21.13;;;15.83;;
15049;SDS011;7622;42.724;23.250;2022-10-22T02:01:03;28.90;;;17.70;;
15049;SDS011;7622;42.724;23.250;2022-10-22T02:03:36;28.93;;;18.20;;
15049;SDS011;7622;42.724;23.250;2022-10-22T02:06:07;26.20;;;16.87;;
15049;SDS011;7622;42.724;23.250;2022-10-22T02:08:41;25.57;;;17.63;;
15049;SDS011;7622;42.724;23.250;2022-10-22T02:11:08;26.03;;;18.37;;
15049;SDS011;7622;42.724;23.250;2022-10-22T02:13:39;28.70;;;18.63;;
15049;SDS011;7622;42.724;23.250;2022-10-22T02:16:12;24.83;;;16.67;;
15049;SDS011;7622;42.724;23.250;2022-10-22T02:18:42;24.47;;;17.53;;
15049;SDS011;7622;42.724;23.250;2022-10-22T02:21:11;29.80;;;18.33;;
15049;SDS011;7622;42.724;23.250;2022-10-22T02:23:39;27.17;;;16.67;;
15049;SDS011;7622;42.724;23.250;2022-10-22T02:26:06;29.17;;;18.10;;
15049;SDS011;7622;42.724;23.250;2022-10-22T02:28:41;27.00;;;17.00;;
15049;SDS011;7622;42.724;23.250;2022-10-22T02:31:14;24.80;;;16.53;;
15049;SDS011;7622;42.724;23.250;2022-10-22T02:33:45;25.90;;;17.57;;
15049;SDS011;7622;42.724;23.250;2022-10-22T02:36:15;28.77;;;17.53;;
15049;SDS011;7622;42.724;23.250;2022-10-22T02:38:44;49.40;;;18.53;;
15049;SDS011;7622;42.724;23.250;2022-10-22T02:41:12;33.97;;;16.20;;
15049;SDS011;7622;42.724;23.250;2022-10-22T02:43:41;25.93;;;16.70;;
15049;SDS011;7622;42.724;23.250;2022-10-22T02:46:10;25.97;;;17.07;;
15049;SDS011;7622;42.724;23.250;2022-10-22T02:48:38;28.30;;;17.63;;
15049;SDS011;7622;42.724;23.250;2022-10-22T02:51:05;25.10;;;17.77;;
15049;SDS011;7622;42.724;23.250;2022-10-22T02:53:32;29.43;;;18.57;;
15049;SDS011;7622;42.724;23.250;2022-10-22T02:55:59;26.00;;;18.07;;
15049;SDS011;7622;42.724;23.250;2022-10-22T02:58:26;28.83;;;18.17;;
15049;SDS011;7622;42.724;23.250;2022-10-22T03:00:53;34.40;;;19.87;;
15049;SDS011;7622;42.724;23.250;2022-10-22T03:03:19;29.27;;;19.13;;
15049;SDS011;7622;42.724;23.250;2022-10-22T03:05:48;26.77;;;18.07;;
15049;SDS011;7622;42.724;23.250;2022-10-22T03:08:15;26.63;;;18.70;;
15049;SDS011;7622;42.724;23.250;2022-10-22T03:10:42;29.13;;;19.30;;
15049;SDS011;7622;42.724;23.250;2022-10-22T03:13:09;25.03;;;17.33;;
15049;SDS011;7622;42.724;23.250;2022-10-22T03:15:36;29.67;;;18.53;;
15049;SDS011;7622;42.724;23.250;2022-10-22T03:18:02;34.40;;;19.67;;
15049;SDS011;7622;42.724;23.250;2022-10-22T03:20:29;28.10;;;18.27;;
15049;SDS011;7622;42.724;23.250;2022-10-22T03:22:57;25.57;;;18.80;;
15049;SDS011;7622;42.724;23.250;2022-10-22T03:25:25;28.13;;;18.63;;
15049;SDS011;7622;42.724;23.250;2022-10-22T03:27:55;25.07;;;17.80;;
15049;SDS011;7622;42.724;23.250;2022-10-22T03:30:26;28.23;;;18.07;;
15049;SDS011;7622;42.724;23.250;2022-10-22T03:32:52;27.27;;;17.80;;
15049;SDS011;7622;42.724;23.250;2022-10-22T03:35:19;29.93;;;18.27;;
15049;SDS011;7622;42.724;23.250;2022-10-22T03:37:46;33.53;;;19.17;;
15049;SDS011;7622;42.724;23.250;2022-10-22T03:40:14;27.67;;;17.97;;
15049;SDS011;7622;42.724;23.250;2022-10-22T03:42:41;25.47;;;18.73;;
15049;SDS011;7622;42.724;23.250;2022-10-22T03:45:09;30.90;;;18.13;;
15049;SDS011;7622;42.724;23.250;2022-10-22T03:47:36;30.27;;;19.00;;
15049;SDS011;7622;42.724;23.250;2022-10-22T03:50:03;25.57;;;18.33;;
15049;SDS011;7622;42.724;23.250;2022-10-22T03:52:34;25.57;;;17.43;;
15049;SDS011;7622;42.724;23.250;2022-10-22T03:55:01;28.43;;;17.83;;
15049;SDS011;7622;42.724;23.250;2022-10-22T03:57:30;30.87;;;17.90;;
15049;SDS011;7622;42.724;23.250;2022-10-22T03:59:57;30.63;;;18.00;;
15049;SDS011;7622;42.724;23.250;2022-10-22T04:02:24;29.00;;;18.33;;
15049;SDS011;7622;42.724;23.250;2022-10-22T04:04:50;26.53;;;16.87;;
15049;SDS011;7622;42.724;23.250;2022-10-22T04:07:17;26.60;;;17.00;;
15049;SDS011;7622;42.724;23.250;2022-10-22T04:09:44;31.60;;;17.87;;
15049;SDS011;7622;42.724;23.250;2022-10-22T04:12:11;27.83;;;17.73;;
15049;SDS011;7622;42.724;23.250;2022-10-22T04:14:39;26.70;;;17.60;;
15049;SDS011;7622;42.724;23.250;2022-10-22T04:17:06;29.43;;;18.03;;
15049;SDS011;7622;42.724;23.250;2022-10-22T04:19:32;27.93;;;17.30;;
15049;SDS011;7622;42.724;23.250;2022-10-22T04:21:59;28.87;;;16.97;;
15049;SDS011;7622;42.724;23.250;2022-10-22T04:24:26;26.00;;;16.70;;
15049;SDS011;7622;42.724;23.250;2022-10-22T04:26:55;23.53;;;17.37;;
15049;SDS011;7622;42.724;23.250;2022-10-22T04:29:22;29.27;;;16.93;;
15049;SDS011;7622;42.724;23.250;2022-10-22T04:31:50;24.20;;;17.37;;
15049;SDS011;7622;42.724;23.250;2022-10-22T04:34:17;54.57;;;18.07;;
15049;SDS011;7622;42.724;23.250;2022-10-22T04:36:44;37.27;;;18.53;;
15049;SDS011;7622;42.724;23.250;2022-10-22T04:39:10;26.87;;;17.07;;
15049;SDS011;7622;42.724;23.250;2022-10-22T04:41:37;34.73;;;18.13;;
15049;SDS011;7622;42.724;23.250;2022-10-22T04:44:05;24.33;;;17.43;;
15049;SDS011;7622;42.724;23.250;2022-10-22T04:46:33;30.50;;;17.57;;
15049;SDS011;7622;42.724;23.250;2022-10-22T04:49:02;28.33;;;18.13;;
15049;SDS011;7622;42.724;23.250;2022-10-22T04:51:29;30.37;;;19.03;;
15049;SDS011;7622;42.724;23.250;2022-10-22T04:53:56;28.60;;;18.80;;
15049;SDS011;7622;42.724;23.250;2022-10-22T04:56:23;28.53;;;19.20;;
15049;SDS011;7622;42.724;23.250;2022-10-22T04:58:52;38.47;;;21.03;;
15049;SDS011;7622;42.724;23.250;2022-10-22T05:01:21;40.70;;;21.90;;
15049;SDS011;7622;42.724;23.250;2022-10-22T05:03:50;47.63;;;22.83;;
15049;SDS011;7622;42.724;23.250;2022-10-22T05:06:19;42.20;;;22.43;;
15049;SDS011;7622;42.724;23.250;2022-10-22T05:08:47;36.20;;;21.57;;
15049;SDS011;7622;42.724;23.250;2022-10-22T05:11:14;41.57;;;22.03;;
15049;SDS011;7622;42.724;23.250;2022-10-22T05:13:42;49.87;;;22.10;;
15049;SDS011;7622;42.724;23.250;2022-10-22T05:16:09;36.00;;;21.60;;
15049;SDS011;7622;42.724;23.250;2022-10-22T05:18:36;32.40;;;20.23;;
15049;SDS011;7622;42.724;23.250;2022-10-22T05:21:07;37.07;;;21.60;;
15049;SDS011;7622;42.724;23.250;2022-10-22T05:23:36;43.40;;;21.87;;
15049;SDS011;7622;42.724;23.250;2022-10-22T05:26:03;36.37;;;20.23;;
15049;SDS011;7622;42.724;23.250;2022-10-22T05:28:30;34.93;;;21.00;;
15049;SDS011;7622;42.724;23.250;2022-10-22T05:30:58;31.50;;;20.47;;
15049;SDS011;7622;42.724;23.250;2022-10-22T05:33:25;39.40;;;22.67;;
15049;SDS011;7622;42.724;23.250;2022-10-22T05:35:53;37.40;;;22.33;;
15049;SDS011;7622;42.724;23.250;2022-10-22T05:38:20;28.77;;;17.20;;
15049;SDS011;7622;42.724;23.250;2022-10-22T05:40:48;40.60;;;24.20;;
15049;SDS011;7622;42.724;23.250;2022-10-22T05:43:24;32.00;;;21.17;;
15049;SDS011;7622;42.724;23.250;2022-10-22T05:45:51;37.03;;;20.87;;
15049;SDS011;7622;42.724;23.250;2022-10-22T05:48:18;29.37;;;19.03;;
15049;SDS011;7622;42.724;23.250;2022-10-22T05:50:45;33.87;;;18.83;;
15049;SDS011;7622;42.724;23.250;2022-10-22T05:53:14;32.93;;;20.83;;
15049;SDS011;7622;42.724;23.250;2022-10-22T05:55:41;40.43;;;21.80;;
15049;SDS011;7622;42.724;23.250;2022-10-22T05:58:10;40.77;;;23.47;;
15049;SDS011;7622;42.724;23.250;2022-10-22T06:00:38;40.67;;;27.83;;
15049;SDS011;7622;42.724;23.250;2022-10-22T06:03:04;46.97;;;32.60;;
15049;SDS011;7622;42.724;23.250;2022-10-22T06:05:33;57.03;;;36.77;;
15049;SDS011;7622;42.724;23.250;2022-10-22T06:08:00;62.63;;;43.40;;
15049;SDS011;7622;42.724;23.250;2022-10-22T06:10:27;64.80;;;43.87;;
15049;SDS011;7622;42.724;23.250;2022-10-22T06:12:54;73.93;;;41.40;;
15049;SDS011;7622;42.724;23.250;2022-10-22T06:15:22;61.20;;;39.03;;
15049;SDS011;7622;42.724;23.250;2022-10-22T06:17:49;65.63;;;39.90;;
15049;SDS011;7622;42.724;23.250;2022-10-22T06:20:16;56.57;;;36.17;;
15049;SDS011;7622;42.724;23.250;2022-10-22T06:22:42;66.13;;;38.17;;
15049;SDS011;7622;42.724;23.250;2022-10-22T06:25:09;62.57;;;39.87;;
15049;SDS011;7622;42.724;23.250;2022-10-22T06:27:36;59.37;;;40.53;;
15049;SDS011;7622;42.724;23.250;2022-10-22T06:30:03;71.43;;;38.47;;
15049;SDS011;7622;42.724;23.250;2022-10-22T06:32:32;51.83;;;34.37;;
15049;SDS011;7622;42.724;23.250;2022-10-22T06:34:59;46.97;;;30.17;;
15049;SDS011;7622;42.724;23.250;2022-10-22T06:37:25;41.83;;;28.83;;
15049;SDS011;7622;42.724;23.250;2022-10-22T06:39:52;43.57;;;27.77;;
15049;SDS011;7622;42.724;23.250;2022-10-22T06:42:19;37.87;;;24.97;;
15049;SDS011;7622;42.724;23.250;2022-10-22T06:44:46;40.37;;;25.67;;
15049;SDS011;7622;42.724;23.250;2022-10-22T06:47:12;36.50;;;25.40;;
15049;SDS011;7622;42.724;23.250;2022-10-22T06:49:40;39.57;;;24.47;;
15049;SDS011;7622;42.724;23.250;2022-10-22T06:52:07;34.73;;;23.83;;
15049;SDS011;7622;42.724;23.250;2022-10-22T06:54:34;36.17;;;24.20;;
15049;SDS011;7622;42.724;23.250;2022-10-22T06:57:01;40.73;;;24.43;;
15049;SDS011;7622;42.724;23.250;2022-10-22T06:59:28;36.63;;;24.10;;
15049;SDS011;7622;42.724;23.250;2022-10-22T07:01:55;28.93;;;22.37;;
15049;SDS011;7622;42.724;23.250;2022-10-22T07:04:21;31.60;;;20.80;;
15049;SDS011;7622;42.724;23.250;2022-10-22T07:06:49;36.23;;;22.20;;
15049;SDS011;7622;42.724;23.250;2022-10-22T07:09:16;33.03;;;21.30;;
15049;SDS011;7622;42.724;23.250;2022-10-22T07:11:44;29.63;;;21.47;;
15049;SDS011;7622;42.724;23.250;2022-10-22T07:14:11;33.73;;;21.03;;
15049;SDS011;7622;42.724;23.250;2022-10-22T07:16:39;51.03;;;20.30;;
15049;SDS011;7622;42.724;23.250;2022-10-22T07:19:07;30.57;;;19.33;;
15049;SDS011;7622;42.724;23.250;2022-10-22T07:21:34;26.73;;;18.70;;
15049;SDS011;7622;42.724;23.250;2022-10-22T07:24:02;30.33;;;20.40;;
15049;SDS011;7622;42.724;23.250;2022-10-22T07:26:29;26.13;;;20.57;;
15049;SDS011;7622;42.724;23.250;2022-10-22T07:28:57;31.07;;;19.73;;
15049;SDS011;7622;42.724;23.250;2022-10-22T07:31:24;28.20;;;19.83;;
15049;SDS011;7622;42.724;23.250;2022-10-22T07:33:51;28.30;;;19.27;;
15049;SDS011;7622;42.724;23.250;2022-10-22T07:36:18;28.37;;;20.00;;
15049;SDS011;7622;42.724;23.250;2022-10-22T07:38:45;30.53;;;20.03;;
15049;SDS011;7622;42.724;23.250;2022-10-22T07:41:14;22.93;;;18.57;;
15049;SDS011;7622;42.724;23.250;2022-10-22T07:43:41;29.33;;;20.07;;
15049;SDS011;7622;42.724;23.250;2022-10-22T07:46:08;24.60;;;18.23;;
15049;SDS011;7622;42.724;23.250;2022-10-22T07:48:36;27.53;;;17.93;;
15049;SDS011;7622;42.724;23.250;2022-10-22T07:51:03;26.77;;;19.00;;
15049;SDS011;7622;42.724;23.250;2022-10-22T07:53:30;25.80;;;18.70;;
15049;SDS011;7622;42.724;23.250;2022-10-22T07:55:57;24.33;;;17.43;;
15049;SDS011;7622;42.724;23.250;2022-10-22T07:58:25;23.20;;;16.90;;
15049;SDS011;7622;42.724;23.250;2022-10-22T08:00:53;28.83;;;18.47;;
15049;SDS011;7622;42.724;23.250;2022-10-22T08:03:21;42.70;;;18.80;;
15049;SDS011;7622;42.724;23.250;2022-10-22T08:05:48;24.00;;;17.10;;
15049;SDS011;7622;42.724;23.250;2022-10-22T08:08:15;30.90;;;18.10;;
15049;SDS011;7622;42.724;23.250;2022-10-22T08:10:42;19.80;;;16.40;;
15049;SDS011;7622;42.724;23.250;2022-10-22T08:13:09;23.93;;;18.37;;
15049;SDS011;7622;42.724;23.250;2022-10-22T08:15:38;21.97;;;16.97;;
15049;SDS011;7622;42.724;23.250;2022-10-22T08:18:05;26.87;;;18.43;;
15049;SDS011;7622;42.724;23.250;2022-10-22T08:20:31;25.73;;;18.07;;
15049;SDS011;7622;42.724;23.250;2022-10-22T08:22:58;21.13;;;15.83;;
